createdAt,value
2022-10-17T00:00:17.003Z,100534.28
2022-10-17T00:05:18.992Z,100539.72
2022-10-17T00:10:21.020Z,100522.31
2022-10-17T00:15:23.255Z,100513.25
2022-10-17T00:20:25.235Z,100511.72
2022-10-17T00:25:27.324Z,100505.44
2022-10-17T00:30:29.645Z,100496.53
2022-10-17T00:35:31.978Z,100494.19
2022-10-17T00:40:33.938Z,100485.53
2022-10-17T00:45:35.880Z,100488.31
2022-10-17T00:50:39.948Z,100484.97
2022-10-17T00:55:53.097Z,100478.03
2022-10-17T01:00:55.226Z,100464.28
2022-10-17T01:05:57.140Z,100454.53
2022-10-17T01:11:05.293Z,100440.88
2022-10-17T01:16:07.153Z,100434.06
2022-10-17T01:21:15.890Z,100425.28
2022-10-17T01:26:30.019Z,100433.78
2022-10-17T01:31:41.375Z,100430.75
2022-10-17T01:36:51.294Z,100403.63
2022-10-17T01:42:02.439Z,100409.75
2022-10-17T01:47:10.241Z,100402.50
2022-10-17T01:52:17.833Z,100384.78
2022-10-17T01:57:28.057Z,100381.47
2022-10-17T02:02:31.215Z,100379.81
2022-10-17T02:07:33.167Z,100385.63
2022-10-17T02:12:45.770Z,100387.44
2022-10-17T02:18:23.393Z,100388.44
2022-10-17T02:23:28.157Z,100373.81
2022-10-17T02:28:47.345Z,100372.03
2022-10-17T02:33:52.806Z,100370.63
2022-10-17T02:38:55.336Z,100368.69
2022-10-17T02:44:00.240Z,100362.34
2022-10-17T02:49:04.264Z,100365.66
2022-10-17T02:54:26.384Z,100353.69
2022-10-17T02:59:30.500Z,100363.97
2022-10-17T03:04:32.799Z,100344.91
2022-10-17T03:09:34.718Z,100337.97
2022-10-17T03:14:36.702Z,100342.28
2022-10-17T03:19:39.107Z,100336.69
2022-10-17T03:24:41.081Z,100316.53
2022-10-17T03:29:43.273Z,100309.28
2022-10-17T03:34:45.622Z,100309.44
2022-10-17T03:39:47.740Z,100291.34
2022-10-17T03:44:50.677Z,100308.75
2022-10-17T03:49:53.856Z,100279.63
2022-10-17T03:54:56.829Z,100284.34
2022-10-17T03:59:58.911Z,100300.19
2022-10-17T04:05:01.330Z,100267.78
2022-10-17T04:10:05.473Z,100262.34
2022-10-17T04:15:08.324Z,100253.44
2022-10-17T04:20:11.116Z,100266.66
2022-10-17T04:25:13.333Z,100272.94
2022-10-17T04:30:18.987Z,100281.16
2022-10-17T04:35:21.451Z,100243.16
2022-10-17T04:40:29.300Z,100252.31
2022-10-17T04:45:31.350Z,100230.72
2022-10-17T04:50:37.662Z,100249.59
2022-10-17T04:55:59.817Z,100231.50
2022-10-17T05:01:09.275Z,100233.25
2022-10-17T05:06:16.805Z,100240.72
2022-10-17T05:11:25.069Z,100217.31
2022-10-17T05:16:27.938Z,100210.13
2022-10-17T05:26:39.904Z,100200.00
2022-10-17T05:31:42.074Z,100211.25
2022-10-17T05:36:44.020Z,100203.53
2022-10-17T05:41:46.799Z,100188.28
2022-10-17T05:46:49.804Z,100183.59
2022-10-17T05:51:51.903Z,100180.63
2022-10-17T05:56:54.902Z,100167.88
2022-10-17T06:02:00.378Z,100183.34
2022-10-17T06:07:02.513Z,100188.41
2022-10-17T06:12:06.817Z,100191.78
2022-10-17T06:17:13.419Z,100189.72
2022-10-17T06:22:18.505Z,100182.28
2022-10-17T06:27:21.809Z,100151.31
2022-10-17T06:32:24.018Z,100177.59
2022-10-17T06:37:26.558Z,100183.22
2022-10-17T06:42:29.429Z,100173.44
2022-10-17T06:47:42.898Z,100153.22
2022-10-17T06:53:05.036Z,100142.94
2022-10-17T06:58:25.235Z,100122.47
2022-10-17T07:03:47.633Z,100127.50
2022-10-17T07:08:50.541Z,100124.78
2022-10-17T07:13:53.934Z,100126.59
2022-10-17T07:18:56.926Z,100128.63
2022-10-17T07:23:59.042Z,100145.19
2022-10-17T07:29:02.019Z,100180.28
2022-10-17T07:34:39.346Z,100107.56
2022-10-17T07:39:43.583Z,100122.19
2022-10-17T07:44:47.554Z,100109.53
2022-10-17T07:49:50.327Z,100109.53
2022-10-17T07:54:52.282Z,100094.13
2022-10-17T07:59:54.655Z,100084.41
2022-10-17T08:04:56.638Z,100091.63
2022-10-17T08:09:58.630Z,100124.94
2022-10-17T08:15:01.100Z,100125.47
2022-10-17T08:20:03.729Z,100088.91
2022-10-17T08:25:05.899Z,100113.34
2022-10-17T08:30:08.514Z,100107.06
2022-10-17T08:35:10.678Z,100127.63
2022-10-17T08:40:19.471Z,100098.78
2022-10-17T08:45:21.521Z,100060.50
2022-10-17T08:50:42.127Z,100060.94
2022-10-17T08:55:49.043Z,100063.69
2022-10-17T09:01:00.085Z,100092.84
2022-10-17T09:06:05.072Z,100104.84
2022-10-17T09:11:15.891Z,100062.00
2022-10-17T09:16:27.011Z,100055.44
2022-10-17T09:21:41.396Z,100066.22
2022-10-17T09:26:44.916Z,100104.13
2022-10-17T09:32:02.602Z,100090.31
2022-10-17T09:37:11.345Z,100082.00
2022-10-17T09:42:15.454Z,100073.03
2022-10-17T09:47:23.641Z,100108.16
2022-10-17T09:52:28.684Z,100061.75
2022-10-17T09:57:50.709Z,100056.50
2022-10-17T10:03:08.306Z,100045.63
2022-10-17T10:08:14.200Z,100042.06
2022-10-17T10:13:17.934Z,100050.16
2022-10-17T10:18:19.880Z,100040.41
2022-10-17T10:23:22.734Z,100020.09
2022-10-17T10:28:27.183Z,100000.66
2022-10-17T10:33:29.922Z,100011.25
2022-10-17T10:38:32.908Z,99990.44
2022-10-17T10:43:38.025Z,100011.78
2022-10-17T10:48:49.722Z,99986.69
2022-10-17T10:53:54.899Z,99985.38
2022-10-17T10:59:02.924Z,99969.53
2022-10-17T11:04:20.146Z,99979.31
2022-10-17T11:09:26.230Z,99982.03
2022-10-17T11:14:43.341Z,99977.56
2022-10-17T11:20:07.995Z,99981.88
2022-10-17T11:25:25.247Z,99978.56
2022-10-17T11:30:28.798Z,99976.41
2022-10-17T11:35:36.674Z,99978.13
2022-10-17T11:40:41.545Z,99958.25
2022-10-17T11:45:45.823Z,99938.38
2022-10-17T11:56:41.884Z,99902.63
2022-10-17T12:01:56.070Z,99912.53
2022-10-17T12:07:16.658Z,99919.66
2022-10-17T12:12:29.682Z,99923.31
2022-10-17T12:17:39.332Z,99895.34
2022-10-17T12:22:47.105Z,99902.94
2022-10-17T12:27:50.469Z,99922.34
2022-10-17T12:33:05.661Z,99929.81
2022-10-17T12:38:15.164Z,99932.13
2022-10-17T12:43:17.139Z,99939.75
2022-10-17T12:48:34.126Z,99934.09
2022-10-17T12:53:56.781Z,99961.25
2022-10-17T12:58:59.962Z,99984.28
2022-10-17T13:04:05.847Z,99993.41
2022-10-17T13:09:10.017Z,99995.09
2022-10-17T13:14:13.435Z,99994.09
2022-10-17T13:19:16.519Z,99997.88
2022-10-17T13:24:38.246Z,99986.63
2022-10-17T13:29:44.442Z,100004.69
2022-10-17T13:34:46.311Z,99984.97
2022-10-17T13:40:00.275Z,99978.34
2022-10-17T13:45:14.468Z,99970.22
2022-10-17T13:50:42.929Z,99935.09
2022-10-17T13:56:23.208Z,99925.00
2022-10-17T14:01:23.739Z,99943.91
2022-10-17T14:06:27.346Z,99919.22
2022-10-17T14:11:29.239Z,99917.88
2022-10-17T14:16:36.526Z,99923.38
2022-10-17T14:21:44.184Z,99921.38
2022-10-17T14:26:51.130Z,99918.56
2022-10-17T14:32:08.625Z,99912.06
2022-10-17T14:37:24.672Z,99935.09
2022-10-17T14:42:26.761Z,99929.97
2022-10-17T14:47:43.060Z,99922.19
2022-10-17T14:52:58.916Z,99938.44
2022-10-17T14:58:01.741Z,99926.84
2022-10-17T15:03:03.760Z,99935.63
2022-10-17T15:08:06.634Z,99947.38
2022-10-17T15:13:27.294Z,99942.06
2022-10-17T15:18:29.800Z,99958.63
2022-10-17T15:23:31.881Z,99974.72
2022-10-17T15:28:33.830Z,99947.03
2022-10-17T15:33:35.743Z,99960.97
2022-10-17T15:38:37.608Z,99964.94
2022-10-17T15:43:39.549Z,99981.03
2022-10-17T15:48:41.571Z,99970.31
2022-10-17T15:53:43.745Z,99968.13
2022-10-17T15:58:45.711Z,99960.53
2022-10-17T16:03:50.230Z,99962.66
2022-10-17T16:08:52.079Z,99949.09
2022-10-17T16:13:55.377Z,99944.94
2022-10-17T16:18:57.541Z,99967.81
2022-10-17T16:24:00.595Z,99965.31
2022-10-17T16:29:04.761Z,99973.94
2022-10-17T16:34:07.771Z,99980.91
2022-10-17T16:39:09.744Z,99985.22
2022-10-17T16:44:16.487Z,99975.13
2022-10-17T16:49:18.421Z,99991.03
2022-10-17T16:54:20.405Z,99978.41
2022-10-17T16:59:24.281Z,99974.28
2022-10-17T17:04:26.194Z,99994.50
2022-10-17T17:09:28.203Z,99994.00
2022-10-17T17:14:30.111Z,99997.50
2022-10-17T17:19:31.998Z,100001.31
2022-10-17T17:24:35.281Z,99990.19
2022-10-17T17:29:37.803Z,99976.94
2022-10-17T17:34:39.703Z,99987.56
2022-10-17T17:39:43.002Z,100000.31
2022-10-17T17:44:45.177Z,99998.47
2022-10-17T17:49:47.083Z,99995.66
2022-10-17T17:54:48.972Z,99999.50
2022-10-17T17:59:52.871Z,99994.97
2022-10-17T18:04:54.785Z,99981.22
2022-10-17T18:09:57.125Z,99998.13
2022-10-17T18:14:59.042Z,100000.28
2022-10-17T18:20:01.786Z,100006.28
2022-10-17T18:25:05.742Z,100008.75
2022-10-17T18:30:08.632Z,100010.41
2022-10-17T18:35:11.623Z,100016.22
2022-10-17T18:40:13.560Z,100011.25
2022-10-17T18:45:15.770Z,100027.00
2022-10-17T18:50:17.697Z,100012.75
2022-10-17T18:55:21.000Z,100023.38
2022-10-17T19:00:22.967Z,100022.88
2022-10-17T19:05:25.061Z,100014.91
2022-10-17T19:10:27.039Z,100020.53
2022-10-17T19:15:29.352Z,100018.22
2022-10-17T19:20:31.303Z,100016.06
2022-10-17T19:25:34.459Z,100026.53
2022-10-17T19:30:36.362Z,100022.72
2022-10-17T19:35:38.301Z,100020.03
2022-10-17T19:40:40.648Z,100016.56
2022-10-17T19:45:42.914Z,100020.53
2022-10-17T19:50:45.071Z,100027.16
2022-10-17T19:55:47.106Z,100019.38
2022-10-17T20:00:50.098Z,100021.19
2022-10-17T20:05:52.638Z,100028.81
2022-10-17T20:10:54.598Z,100019.69
2022-10-17T20:15:57.144Z,100031.78
2022-10-17T20:21:05.708Z,100020.00
2022-10-17T20:26:37.084Z,100026.94
2022-10-17T20:31:32.219Z,100030.22
2022-10-17T20:36:37.125Z,100040.47
2022-10-17T20:41:39.608Z,100031.00
2022-10-17T20:46:48.700Z,100054.22
2022-10-17T20:52:02.517Z,100051.56
2022-10-17T20:57:05.953Z,100049.91
2022-10-17T21:02:11.184Z,100056.53
2022-10-17T21:07:13.075Z,100042.06
2022-10-17T21:12:25.855Z,100030.81
2022-10-17T21:17:37.661Z,100041.41
2022-10-17T21:22:39.822Z,100030.13
2022-10-17T21:27:41.694Z,100034.94
2022-10-17T21:32:51.845Z,100024.16
2022-10-17T21:37:54.016Z,100015.53
2022-10-17T21:42:55.883Z,100031.56
2022-10-17T21:48:13.576Z,100022.13
2022-10-17T21:53:15.621Z,100025.09
2022-10-17T21:58:17.531Z,100022.59
2022-10-17T22:03:19.424Z,100022.59
2022-10-17T22:08:21.380Z,100013.97
2022-10-17T22:13:23.373Z,100012.16
2022-10-17T22:18:25.342Z,100014.81
2022-10-17T22:23:27.311Z,100003.56
2022-10-17T22:28:29.246Z,100005.38
2022-10-17T22:33:38.310Z,100007.19
2022-10-17T22:38:40.494Z,100000.41
2022-10-17T22:43:42.442Z,99995.78
2022-10-17T22:48:44.538Z,100002.75
2022-10-17T22:53:46.520Z,99989.34
2022-10-17T22:58:48.728Z,99988.16
2022-10-17T23:03:51.460Z,99986.03
2022-10-17T23:08:53.689Z,99960.19
2022-10-17T23:13:55.570Z,99981.13
2022-10-17T23:18:57.528Z,99977.97
2022-10-17T23:23:59.451Z,99982.94
2022-10-17T23:29:01.437Z,99975.81
2022-10-17T23:34:03.508Z,99980.13
2022-10-17T23:39:06.384Z,99977.31
2022-10-17T23:44:09.931Z,99990.56
2022-10-17T23:49:11.863Z,99981.28
2022-10-17T23:54:13.844Z,99985.25
2022-10-17T23:59:15.761Z,99962.53
